createdAt,value
2023-10-06T00:00:36.208Z,2.70
2023-10-06T00:03:46.373Z,2.25
2023-10-06T00:06:51.215Z,2.30
2023-10-06T00:09:56.524Z,2.47
2023-10-06T00:13:01.438Z,7.00
2023-10-06T00:16:09.378Z,6.82
2023-10-06T00:19:25.001Z,2.90
2023-10-06T00:22:31.156Z,2.17
2023-10-06T00:25:38.347Z,2.28
2023-10-06T00:28:42.421Z,2.47
2023-10-06T00:31:49.927Z,1.77
2023-10-06T00:34:57.559Z,1.70
2023-10-06T00:38:14.904Z,1.83
2023-10-06T00:41:22.221Z,1.90
2023-10-06T00:44:26.692Z,1.65
2023-10-06T00:47:41.161Z,2.03
2023-10-06T00:50:45.915Z,2.28
2023-10-06T00:53:54.215Z,2.30
2023-10-06T00:57:00.283Z,2.00
2023-10-06T01:00:17.902Z,2.15
2023-10-06T01:03:27.523Z,2.05
2023-10-06T01:06:38.342Z,1.95
2023-10-06T01:09:58.715Z,1.77
2023-10-06T01:13:14.442Z,1.70
2023-10-06T01:16:28.549Z,1.85
2023-10-06T01:19:35.274Z,1.80
2023-10-06T01:22:46.463Z,1.70
2023-10-06T01:25:57.881Z,1.80
2023-10-06T01:29:06.124Z,1.85
2023-10-06T01:32:11.892Z,1.58
2023-10-06T01:35:39.654Z,1.92
2023-10-06T01:38:45.753Z,1.60
2023-10-06T01:41:52.198Z,1.85
2023-10-06T01:45:00.982Z,1.70
2023-10-06T01:48:15.570Z,1.90
2023-10-06T01:51:19.469Z,1.67
2023-10-06T01:54:29.905Z,1.85
2023-10-06T01:57:34.629Z,1.83
2023-10-06T02:00:50.034Z,2.10
2023-10-06T02:03:55.428Z,1.92
2023-10-06T02:07:00.725Z,1.80
2023-10-06T02:10:06.006Z,1.90
2023-10-06T02:13:10.088Z,2.20
2023-10-06T02:16:19.819Z,2.00
2023-10-06T02:19:24.483Z,1.70
2023-10-06T02:22:29.761Z,1.30
2023-10-06T02:25:34.135Z,1.92
2023-10-06T02:28:46.084Z,1.80
2023-10-06T02:31:54.678Z,1.77
2023-10-06T02:35:01.530Z,2.10
2023-10-06T02:38:08.754Z,1.25
2023-10-06T02:41:27.944Z,2.20
2023-10-06T02:44:32.441Z,1.30
2023-10-06T02:47:38.574Z,1.58
2023-10-06T02:53:52.975Z,1.40
2023-10-06T02:56:58.023Z,1.38
2023-10-06T03:00:22.279Z,1.42
2023-10-06T03:03:29.934Z,1.30
2023-10-06T03:06:38.553Z,1.17
2023-10-06T03:09:50.207Z,1.20
2023-10-06T03:12:55.288Z,1.83
2023-10-06T03:16:00.051Z,1.65
2023-10-06T03:19:05.129Z,1.10
2023-10-06T03:22:12.250Z,1.60
2023-10-06T03:25:18.829Z,1.27
2023-10-06T03:28:38.501Z,0.82
2023-10-06T03:31:49.340Z,0.98
2023-10-06T03:35:19.692Z,3.30
2023-10-06T03:38:24.077Z,2.20
2023-10-06T03:41:33.050Z,4.43
2023-10-06T03:44:37.844Z,16.85
2023-10-06T03:47:42.252Z,4.40
2023-10-06T03:50:47.460Z,7.38
2023-10-06T03:53:51.528Z,4.63
2023-10-06T03:56:56.105Z,2.10
2023-10-06T04:00:00.503Z,2.97
2023-10-06T04:03:06.767Z,5.30
2023-10-06T04:06:17.452Z,3.00
2023-10-06T04:09:30.343Z,2.90
2023-10-06T04:12:36.176Z,1.50
2023-10-06T04:15:56.255Z,1.00
2023-10-06T04:19:05.674Z,2.00
2023-10-06T04:22:10.620Z,1.20
2023-10-06T04:25:19.310Z,1.20
2023-10-06T04:28:27.230Z,1.08
2023-10-06T04:31:31.837Z,1.80
2023-10-06T04:34:39.199Z,1.60
2023-10-06T04:37:49.553Z,1.10
2023-10-06T04:40:54.043Z,1.50
2023-10-06T04:44:04.178Z,1.55
2023-10-06T04:47:12.226Z,1.00
2023-10-06T04:50:18.147Z,1.27
2023-10-06T04:53:22.777Z,1.00
2023-10-06T04:56:31.886Z,0.90
2023-10-06T04:59:38.889Z,0.73
2023-10-06T05:02:52.247Z,1.35
2023-10-06T05:05:59.732Z,1.00
2023-10-06T05:09:05.095Z,0.98
2023-10-06T05:12:09.230Z,1.27
2023-10-06T05:15:24.366Z,1.60
2023-10-06T05:18:37.183Z,2.07
2023-10-06T05:21:44.653Z,2.83
2023-10-06T05:24:49.578Z,1.17
2023-10-06T05:28:18.553Z,1.30
2023-10-06T05:31:26.832Z,1.48
2023-10-06T05:34:31.722Z,1.63
2023-10-06T05:37:36.312Z,1.23
2023-10-06T05:40:40.751Z,2.10
2023-10-06T05:43:45.380Z,2.47
2023-10-06T05:46:49.332Z,3.67
2023-10-06T05:49:55.860Z,5.25
2023-10-06T05:53:03.566Z,3.20
2023-10-06T05:56:11.439Z,2.30
2023-10-06T05:59:21.109Z,1.30
2023-10-06T06:02:29.373Z,1.83
2023-10-06T06:05:38.021Z,1.60
2023-10-06T06:08:49.691Z,1.80
2023-10-06T06:11:54.409Z,3.20
2023-10-06T06:14:58.470Z,1.65
2023-10-06T06:18:15.614Z,1.42
2023-10-06T06:21:28.258Z,1.35
2023-10-06T06:24:34.776Z,1.50
2023-10-06T06:27:39.634Z,1.80
2023-10-06T06:30:44.048Z,1.52
2023-10-06T06:33:58.815Z,1.80
2023-10-06T06:37:03.059Z,2.33
2023-10-06T06:40:13.049Z,2.08
2023-10-06T06:43:19.472Z,2.25
2023-10-06T06:46:26.572Z,3.78
2023-10-06T06:49:30.763Z,2.95
2023-10-06T06:52:36.929Z,2.70
2023-10-06T06:58:50.739Z,3.25
2023-10-06T07:01:55.068Z,2.88
2023-10-06T07:04:59.514Z,2.58
2023-10-06T07:08:07.274Z,2.28
2023-10-06T07:11:15.502Z,2.00
2023-10-06T07:14:19.495Z,1.63
2023-10-06T07:17:25.141Z,1.45
2023-10-06T07:20:32.455Z,2.10
2023-10-06T07:23:55.031Z,2.97
2023-10-06T07:26:59.063Z,2.30
2023-10-06T07:30:06.778Z,6.03
2023-10-06T07:33:11.229Z,2.92
2023-10-06T07:36:25.697Z,2.78
2023-10-06T07:39:30.086Z,2.10
2023-10-06T07:42:35.657Z,8.25
2023-10-06T07:45:40.311Z,4.20
2023-10-06T07:48:47.890Z,3.17
2023-10-06T07:51:51.854Z,3.10
2023-10-06T07:55:00.583Z,3.03
2023-10-06T07:58:09.839Z,3.00
2023-10-06T08:01:24.277Z,1.33
2023-10-06T08:04:28.761Z,1.73
2023-10-06T08:07:35.547Z,2.42
2023-10-06T08:10:40.302Z,3.42
2023-10-06T08:13:45.014Z,3.45
2023-10-06T08:16:52.140Z,4.45
2023-10-06T08:19:57.645Z,4.43
2023-10-06T08:23:07.283Z,6.50
2023-10-06T08:26:15.936Z,6.82
2023-10-06T08:29:20.117Z,4.30
2023-10-06T08:32:26.052Z,6.35
2023-10-06T08:38:35.029Z,3.28
2023-10-06T08:41:47.545Z,2.97
2023-10-06T08:44:51.954Z,2.60
2023-10-06T08:48:03.273Z,3.20
2023-10-06T08:51:16.501Z,3.70
2023-10-06T08:54:21.627Z,2.22
2023-10-06T08:57:27.437Z,1.60
2023-10-06T09:03:40.907Z,1.20
2023-10-06T09:07:09.220Z,1.40
2023-10-06T09:10:20.347Z,1.85
2023-10-06T09:13:24.441Z,2.00
2023-10-06T09:16:50.367Z,2.28
2023-10-06T09:19:54.420Z,2.65
2023-10-06T09:23:00.740Z,3.00
2023-10-06T09:26:09.274Z,2.97
2023-10-06T09:29:14.131Z,2.63
2023-10-06T09:32:23.230Z,2.83
2023-10-06T09:35:30.484Z,2.10
2023-10-06T09:38:35.304Z,2.53
2023-10-06T09:41:40.533Z,2.30
2023-10-06T09:44:47.275Z,2.50
2023-10-06T09:47:52.619Z,3.85
2023-10-06T09:54:04.281Z,2.40
2023-10-06T09:57:12.517Z,2.58
2023-10-06T10:00:25.896Z,2.42
2023-10-06T10:03:44.036Z,2.17
2023-10-06T10:06:49.673Z,1.80
2023-10-06T10:09:55.370Z,4.97
2023-10-06T10:16:14.535Z,6.32
2023-10-06T10:19:25.664Z,3.85
2023-10-06T10:22:30.828Z,3.63
2023-10-06T10:25:38.269Z,2.20
2023-10-06T10:28:42.509Z,2.13
2023-10-06T10:32:05.030Z,1.63
2023-10-06T10:35:15.596Z,1.48
2023-10-06T10:38:19.781Z,1.48
2023-10-06T10:41:29.221Z,1.40
2023-10-06T10:44:35.640Z,0.90
2023-10-06T10:47:39.986Z,0.80
2023-10-06T10:51:08.773Z,0.88
2023-10-06T10:54:14.200Z,0.90
2023-10-06T10:57:23.340Z,0.77
2023-10-06T11:00:28.191Z,0.80
2023-10-06T11:03:35.662Z,0.80
2023-10-06T11:07:26.274Z,0.77
2023-10-06T11:11:01.011Z,0.90
2023-10-06T11:14:06.705Z,0.63
2023-10-06T11:17:14.456Z,0.90
2023-10-06T11:20:24.289Z,0.70
2023-10-06T11:23:44.119Z,2.08
2023-10-06T11:26:49.050Z,3.65
2023-10-06T11:29:54.656Z,7.18
2023-10-06T11:36:06.461Z,8.00
2023-10-06T11:39:10.688Z,8.23
2023-10-06T11:42:34.628Z,9.02
2023-10-06T11:45:39.259Z,8.00
2023-10-06T11:48:44.235Z,8.27
2023-10-06T11:51:51.569Z,7.55
2023-10-06T11:54:58.508Z,7.90
2023-10-06T11:58:06.754Z,6.07
2023-10-06T12:01:40.012Z,7.35
2023-10-06T12:04:45.585Z,7.53
2023-10-06T12:07:52.835Z,8.05
2023-10-06T12:11:06.043Z,6.35
2023-10-06T12:14:13.507Z,6.13
2023-10-06T12:17:18.386Z,7.50
2023-10-06T12:20:22.593Z,14.75
2023-10-06T12:23:26.473Z,18.92
2023-10-06T12:26:33.484Z,20.27
2023-10-06T12:29:38.388Z,47.28
2023-10-06T12:32:47.902Z,18.05
2023-10-06T12:35:54.845Z,7.60
2023-10-06T12:39:01.713Z,6.78
2023-10-06T12:42:07.086Z,12.10
2023-10-06T12:45:15.557Z,33.88
2023-10-06T12:48:19.861Z,27.58
2023-10-06T12:51:30.271Z,18.75
2023-10-06T12:54:34.145Z,15.85
2023-10-06T12:57:40.835Z,15.10
2023-10-06T13:00:45.576Z,18.27
2023-10-06T13:03:52.819Z,25.70
2023-10-06T13:07:01.061Z,23.08
2023-10-06T13:10:09.167Z,17.50
2023-10-06T13:13:14.351Z,17.25
2023-10-06T13:19:26.567Z,16.20
2023-10-06T13:22:32.058Z,20.77
2023-10-06T13:28:47.377Z,20.58
2023-10-06T13:31:51.694Z,21.10
2023-10-06T13:34:55.615Z,21.48
2023-10-06T13:38:00.373Z,18.90
2023-10-06T13:41:06.457Z,18.60
2023-10-06T13:44:13.532Z,17.27
2023-10-06T13:47:19.773Z,18.98
2023-10-06T13:50:33.017Z,15.10
2023-10-06T13:53:38.543Z,15.20
2023-10-06T13:56:43.856Z,12.27
2023-10-06T13:59:49.085Z,11.40
2023-10-06T14:02:54.116Z,9.48
2023-10-06T14:06:01.608Z,7.30
2023-10-06T14:09:07.971Z,5.78
2023-10-06T14:12:15.990Z,5.57
2023-10-06T14:15:24.183Z,4.85
2023-10-06T14:18:31.813Z,4.85
2023-10-06T14:21:36.471Z,6.10
2023-10-06T14:24:41.381Z,5.22
2023-10-06T14:27:45.975Z,4.15
2023-10-06T14:30:52.809Z,3.78
2023-10-06T14:34:20.586Z,3.50
2023-10-06T14:37:41.297Z,3.83
2023-10-06T14:41:13.952Z,6.18
2023-10-06T14:44:37.150Z,11.10
2023-10-06T14:47:43.550Z,6.75
2023-10-06T14:50:57.825Z,8.18
2023-10-06T14:54:03.833Z,6.97
2023-10-06T14:57:09.082Z,6.60
2023-10-06T15:00:16.007Z,5.40
2023-10-06T15:03:21.159Z,4.30
2023-10-06T15:06:28.068Z,4.33
2023-10-06T15:09:35.490Z,3.83
2023-10-06T15:12:41.373Z,4.15
2023-10-06T15:15:46.346Z,3.42
2023-10-06T15:18:50.908Z,3.20
2023-10-06T15:21:56.864Z,2.97
2023-10-06T15:25:01.468Z,3.70
2023-10-06T15:28:09.748Z,3.75
2023-10-06T15:31:19.010Z,3.88
2023-10-06T15:34:23.372Z,4.65
2023-10-06T15:37:27.902Z,3.95
2023-10-06T15:40:33.554Z,3.45
2023-10-06T15:43:43.265Z,3.88
2023-10-06T15:46:51.871Z,3.85
2023-10-06T15:50:06.169Z,4.38
2023-10-06T15:53:15.043Z,4.57
2023-10-06T15:56:21.568Z,4.57
2023-10-06T15:59:26.928Z,4.82
2023-10-06T16:02:32.040Z,4.07
2023-10-06T16:05:38.440Z,4.37
2023-10-06T16:08:45.273Z,5.28
2023-10-06T16:11:50.210Z,5.05
2023-10-06T16:14:54.402Z,4.90
2023-10-06T16:17:59.161Z,5.50
2023-10-06T16:21:04.339Z,22.43
2023-10-06T16:24:09.090Z,9.60
2023-10-06T16:27:13.835Z,3.60
2023-10-06T16:30:19.295Z,3.88
2023-10-06T16:33:23.198Z,12.27
2023-10-06T16:36:27.737Z,6.20
2023-10-06T16:39:32.076Z,7.07
2023-10-06T16:42:36.962Z,5.65
2023-10-06T16:45:40.855Z,6.30
2023-10-06T16:48:48.499Z,7.35
2023-10-06T16:51:53.359Z,6.03
2023-10-06T16:54:58.879Z,4.33
2023-10-06T16:58:03.878Z,55.45
2023-10-06T17:01:11.921Z,20.52
2023-10-06T17:04:20.704Z,5.90
2023-10-06T17:07:25.566Z,6.85
2023-10-06T17:10:30.981Z,25.00
2023-10-06T17:13:39.289Z,12.48
2023-10-06T17:16:43.329Z,22.70
2023-10-06T17:19:48.103Z,10.52
2023-10-06T17:22:52.492Z,15.88
2023-10-06T17:25:57.163Z,10.38
2023-10-06T17:29:01.062Z,11.15
2023-10-06T17:32:06.738Z,10.68
2023-10-06T17:35:11.206Z,12.63
2023-10-06T17:38:15.974Z,8.55
2023-10-06T17:41:20.110Z,7.57
2023-10-06T17:44:25.327Z,18.50
2023-10-06T17:47:30.068Z,16.70
2023-10-06T17:50:34.807Z,38.42
2023-10-06T17:53:39.533Z,35.45
2023-10-06T17:56:44.166Z,33.85
2023-10-06T17:59:48.064Z,20.83
2023-10-06T18:02:53.481Z,15.35
2023-10-06T18:05:58.343Z,7.45
2023-10-06T18:09:03.317Z,7.50
2023-10-06T18:12:24.197Z,13.37
2023-10-06T18:15:31.377Z,14.00
2023-10-06T18:18:35.436Z,16.00
2023-10-06T18:21:40.989Z,14.00
2023-10-06T18:24:45.744Z,17.70
2023-10-06T18:27:50.607Z,13.98
2023-10-06T18:30:55.330Z,15.65
2023-10-06T18:33:59.980Z,24.38
2023-10-06T18:37:04.270Z,30.25
2023-10-06T18:40:09.143Z,27.90
2023-10-06T18:43:12.960Z,16.93
2023-10-06T18:46:21.091Z,12.73
2023-10-06T18:49:25.402Z,5.72
2023-10-06T18:52:29.889Z,4.97
2023-10-06T18:55:34.610Z,5.25
2023-10-06T18:58:38.815Z,7.35
2023-10-06T19:01:43.304Z,3.95
2023-10-06T19:04:47.625Z,4.90
2023-10-06T19:07:52.419Z,5.03
2023-10-06T19:10:59.693Z,6.72
2023-10-06T19:14:09.534Z,7.15
2023-10-06T19:17:14.163Z,7.60
2023-10-06T19:20:19.062Z,4.00
2023-10-06T19:23:23.024Z,3.60
2023-10-06T19:26:28.297Z,3.20
2023-10-06T19:29:35.735Z,4.00
2023-10-06T19:32:41.748Z,5.38
2023-10-06T19:35:46.143Z,5.90
2023-10-06T19:38:52.330Z,5.25
2023-10-06T19:42:00.018Z,5.18
2023-10-06T19:45:07.343Z,7.50
2023-10-06T19:48:11.501Z,6.70
2023-10-06T19:51:19.941Z,5.32
2023-10-06T19:54:27.551Z,5.90
2023-10-06T19:57:32.806Z,6.88
2023-10-06T20:00:39.824Z,7.85
2023-10-06T20:03:45.163Z,12.40
2023-10-06T20:06:49.212Z,12.70
2023-10-06T20:09:54.040Z,17.27
2023-10-06T20:13:02.120Z,9.95
2023-10-06T20:16:18.410Z,4.55
2023-10-06T20:19:25.086Z,3.72
2023-10-06T20:22:29.198Z,3.42
2023-10-06T20:25:34.508Z,3.50
2023-10-06T20:28:38.747Z,2.90
2023-10-06T20:31:42.806Z,3.10
2023-10-06T20:34:48.487Z,2.92
2023-10-06T20:37:52.756Z,2.65
2023-10-06T20:40:57.095Z,2.63
2023-10-06T20:44:02.252Z,2.45
2023-10-06T20:47:06.902Z,4.20
2023-10-06T20:50:14.832Z,4.40
2023-10-06T20:53:19.426Z,3.33
2023-10-06T20:56:24.141Z,4.60
2023-10-06T20:59:30.343Z,5.22
2023-10-06T21:02:38.975Z,11.48
2023-10-06T21:05:43.231Z,11.07
2023-10-06T21:08:48.678Z,13.07
2023-10-06T21:11:53.090Z,12.25
2023-10-06T21:14:58.444Z,11.32
2023-10-06T21:18:03.917Z,10.60
2023-10-06T21:21:08.754Z,8.15
2023-10-06T21:24:12.631Z,5.60
2023-10-06T21:27:18.657Z,5.57
2023-10-06T21:33:26.992Z,5.75
2023-10-06T21:36:32.448Z,9.48
2023-10-06T21:39:39.071Z,14.10
2023-10-06T21:42:43.688Z,6.20
2023-10-06T21:45:48.137Z,5.93
2023-10-06T21:48:52.271Z,5.20
2023-10-06T21:51:56.606Z,3.92
2023-10-06T21:55:00.959Z,4.60
2023-10-06T21:58:09.212Z,8.77
2023-10-06T22:01:21.346Z,9.85
2023-10-06T22:04:27.604Z,10.82
2023-10-06T22:07:31.859Z,7.25
2023-10-06T22:10:37.357Z,5.43
2023-10-06T22:13:47.572Z,31.10
2023-10-06T22:16:52.526Z,17.02
2023-10-06T22:19:57.227Z,11.35
2023-10-06T22:23:01.615Z,6.63
2023-10-06T22:26:06.710Z,8.10
2023-10-06T22:29:10.524Z,6.22
2023-10-06T22:32:16.378Z,4.60
2023-10-06T22:35:24.028Z,4.50
2023-10-06T22:38:28.394Z,4.15
2023-10-06T22:41:32.782Z,3.38
2023-10-06T22:44:38.189Z,3.40
2023-10-06T22:47:42.538Z,4.70
2023-10-06T22:50:46.677Z,4.15
2023-10-06T22:53:50.843Z,4.05
2023-10-06T22:56:55.032Z,4.55
2023-10-06T23:00:00.882Z,4.50
2023-10-06T23:03:07.555Z,4.35
2023-10-06T23:06:14.905Z,5.88
2023-10-06T23:12:53.019Z,3.78
2023-10-06T23:16:05.734Z,4.47
2023-10-06T23:25:05.768Z,7.28
2023-10-06T23:28:41.298Z,3.38
2023-10-06T23:31:58.519Z,3.92
2023-10-06T23:38:13.724Z,11.45
2023-10-06T23:41:19.650Z,8.95
2023-10-06T23:44:24.120Z,4.10
2023-10-06T23:47:31.079Z,3.78
2023-10-06T23:50:35.818Z,2.90
2023-10-06T23:53:40.093Z,2.90
2023-10-06T23:56:44.915Z,3.03
2023-10-06T23:59:52.848Z,2.65
